Time;durP1;ratioP1;P1;durP2;ratioP2;P2;SDS_P1;SDS_P2;PMS_P1;PMS_P2;Temp;Humidity;BMP_temperature;BMP_pressure;BME280_temperature;BME280_humidity;BME280_pressure;Samples;Min_cycle;Max_cycle;Signal;HPM_P1;HPM_P2
2023/01/07 00:00:52;;;;;;;8.80;7.90;;;10.70;99.90;;;;;;5055732;28;20508;-87
2023/01/07 00:03:18;;;;;;;7.88;7.07;;;10.70;99.90;;;;;;5038282;28;20100;-87
2023/01/07 00:05:44;;;;;;;8.60;7.70;;;10.70;99.90;;;;;;5037938;28;20132;-87
2023/01/07 00:08:10;;;;;;;8.82;7.20;;;10.60;99.90;;;;;;5037711;28;20116;-87
2023/01/07 00:10:36;;;;;;;8.38;7.32;;;10.60;99.90;;;;;;5055952;28;20051;-87
2023/01/07 00:13:02;;;;;;;8.18;7.38;;;10.50;99.90;;;;;;5037190;28;20498;-87
2023/01/07 00:15:28;;;;;;;8.80;6.95;;;10.30;99.90;;;;;;5055556;28;20028;-87
2023/01/07 00:17:53;;;;;;;8.82;7.68;;;10.10;99.90;;;;;;5055515;28;20032;-87
2023/01/07 00:20:19;;;;;;;8.18;7.32;;;10.00;99.90;;;;;;5055363;28;20032;-87
2023/01/07 00:22:45;;;;;;;9.48;7.85;;;9.90;99.90;;;;;;5055529;28;20029;-87
2023/01/07 00:25:10;;;;;;;9.13;8.13;;;9.80;99.90;;;;;;5055339;28;20032;-87
2023/01/07 00:27:36;;;;;;;10.73;8.13;;;9.70;99.90;;;;;;5055304;28;20033;-87
2023/01/07 00:30:01;;;;;;;8.32;7.47;;;9.60;99.90;;;;;;5055349;28;20036;-87
2023/01/07 00:32:52;;;;;;;11.20;8.00;;;9.60;99.90;;;;;;5055117;28;20555;-87
2023/01/07 00:35:22;;;;;;;9.52;8.10;;;9.50;99.90;;;;;;5055262;28;20438;-86
2023/01/07 00:37:49;;;;;;;9.90;8.68;;;9.40;99.90;;;;;;5037189;28;20021;-87
2023/01/07 00:40:16;;;;;;;9.40;8.40;;;9.40;99.90;;;;;;5055379;28;20461;-87
2023/01/07 00:42:53;;;;;;;10.43;8.85;;;9.30;99.90;;;;;;5036852;28;20389;-87
2023/01/07 00:45:23;;;;;;;10.48;9.15;;;9.30;99.90;;;;;;5055343;28;20496;-87
2023/01/07 00:47:52;;;;;;;10.27;9.25;;;9.20;99.90;;;;;;5054902;28;20029;-86
2023/01/07 00:50:23;;;;;;;11.10;9.30;;;9.20;99.90;;;;;;5054940;28;20025;-87
2023/01/07 00:52:49;;;;;;;10.60;9.48;;;9.10;99.90;;;;;;5036483;28;20060;-87
2023/01/07 00:55:15;;;;;;;12.23;10.80;;;9.10;99.90;;;;;;5054466;28;20025;-87
2023/01/07 00:57:42;;;;;;;14.82;10.30;;;9.00;99.90;;;;;;5054776;28;20481;-87
2023/01/07 01:00:09;;;;;;;11.68;10.13;;;9.00;99.90;;;;;;5036905;28;20116;-88
2023/01/07 01:02:35;;;;;;;10.93;9.82;;;9.00;99.90;;;;;;5054913;28;20082;-87
2023/01/07 01:05:01;;;;;;;11.20;9.93;;;8.90;99.90;;;;;;5053478;28;20017;-87
2023/01/07 01:07:26;;;;;;;10.32;9.23;;;8.90;99.90;;;;;;5054791;28;20484;-87
2023/01/07 01:09:52;;;;;;;12.07;9.80;;;8.80;99.90;;;;;;5052898;28;20104;-86
2023/01/07 01:12:17;;;;;;;10.27;9.10;;;8.80;99.90;;;;;;5054782;28;20123;-87
2023/01/07 01:14:43;;;;;;;11.35;9.32;;;8.80;99.90;;;;;;5054428;28;20025;-86
2023/01/07 01:17:09;;;;;;;11.30;9.52;;;8.70;99.90;;;;;;5054397;28;20040;-87
2023/01/07 01:19:34;;;;;;;11.32;9.70;;;8.70;99.90;;;;;;5054292;28;20025;-87
2023/01/07 01:22:00;;;;;;;10.40;8.98;;;8.60;99.90;;;;;;5035865;28;20032;-87
2023/01/07 01:24:26;;;;;;;11.45;9.50;;;8.50;99.90;;;;;;5036482;28;20381;-87
2023/01/07 01:26:51;;;;;;;10.75;9.65;;;8.50;99.90;;;;;;5054063;28;20032;-87
2023/01/07 01:29:17;;;;;;;10.77;9.68;;;8.50;99.90;;;;;;5036520;28;20111;-87
2023/01/07 01:31:42;;;;;;;11.13;9.65;;;8.50;99.90;;;;;;5053999;28;20495;-87
2023/01/07 01:34:08;;;;;;;11.77;9.88;;;8.50;99.90;;;;;;5053812;28;20036;-87
2023/01/07 01:36:34;;;;;;;12.82;10.18;;;8.50;99.90;;;;;;5036191;28;20040;-87
2023/01/07 01:38:59;;;;;;;10.65;9.50;;;8.50;99.90;;;;;;5053970;28;20413;-87
2023/01/07 01:41:25;;;;;;;11.00;9.90;;;8.40;99.90;;;;;;5053804;28;20508;-87
2023/01/07 01:43:51;;;;;;;13.25;10.32;;;8.40;99.90;;;;;;5053831;28;20386;-87
2023/01/07 01:46:39;;;;;;;12.52;10.50;;;8.40;99.90;;;;;;5036289;28;20439;-87
2023/01/07 01:49:14;;;;;;;12.50;10.45;;;8.30;99.90;;;;;;5053705;28;20025;-87
2023/01/07 01:51:48;;;;;;;11.23;10.02;;;8.30;99.90;;;;;;5053430;28;20049;-87
2023/01/07 01:54:16;;;;;;;12.70;10.93;;;8.30;99.90;;;;;;5053197;28;20045;-87
2023/01/07 01:56:44;;;;;;;12.80;10.43;;;8.30;99.90;;;;;;5053276;28;20359;-87
2023/01/07 01:59:15;;;;;;;14.32;11.07;;;8.30;99.90;;;;;;5035916;28;20429;-87
2023/01/07 02:01:40;;;;;;;11.88;10.65;;;8.30;99.90;;;;;;5052156;28;20453;-87
2023/01/07 02:04:10;;;;;;;11.95;10.63;;;8.30;99.90;;;;;;5052161;28;20059;-87
2023/01/07 02:06:45;;;;;;;13.13;10.82;;;8.20;99.90;;;;;;5035130;28;20071;-87
2023/01/07 02:09:11;;;;;;;13.82;11.77;;;8.10;99.90;;;;;;5034910;28;20189;-88
2023/01/07 02:11:48;;;;;;;11.98;10.60;;;8.10;99.90;;;;;;5052728;28;20548;-87
2023/01/07 02:14:13;;;;;;;11.32;10.13;;;8.20;99.90;;;;;;5035833;28;20025;-87
2023/01/07 02:17:13;;;;;;;12.02;10.25;;;8.10;99.90;;;;;;5052451;28;20029;-87
2023/01/07 02:19:41;;;;;;;12.75;10.80;;;8.10;99.90;;;;;;4952713;29;20050;-86
2023/01/07 02:22:27;;;;;;;11.77;10.40;;;8.10;99.90;;;;;;4952431;28;20043;-87
2023/01/07 02:25:03;;;;;;;13.88;11.02;;;8.10;99.90;;;;;;4952731;29;20039;-87
2023/01/07 02:27:58;;;;;;;11.48;10.20;;;8.00;99.90;;;;;;4952855;29;20121;-87
2023/01/07 02:30:41;;;;;;;12.00;9.75;;;8.00;99.90;;;;;;4952863;29;20471;-87
2023/01/07 02:33:44;;;;;;;12.45;10.45;;;7.90;99.90;;;;;;4968797;28;20039;-87
2023/01/07 02:36:22;;;;;;;11.38;9.57;;;7.80;99.90;;;;;;4933230;29;20039;-87
2023/01/07 02:39:25;;;;;;;12.35;10.18;;;7.80;99.90;;;;;;4933085;29;20492;-86
2023/01/07 02:41:57;;;;;;;11.88;10.10;;;7.80;99.90;;;;;;4914439;29;20131;-87
2023/01/07 02:44:47;;;;;;;11.82;10.38;;;7.70;99.90;;;;;;4914971;29;20036;-87
2023/01/07 02:47:22;;;;;;;12.05;10.13;;;7.70;99.90;;;;;;4914346;29;20087;-87
2023/01/07 02:49:48;;;;;;;12.80;11.23;;;7.70;99.90;;;;;;4914299;29;20099;-87
2023/01/07 02:52:24;;;;;;;14.13;11.50;;;7.70;99.90;;;;;;4913589;29;20092;-87
2023/01/07 02:55:08;;;;;;;13.95;11.23;;;7.70;99.90;;;;;;4914095;29;20087;-87
2023/01/07 02:57:55;;;;;;;13.95;10.68;;;7.60;99.90;;;;;;4968831;28;20532;-87
2023/01/07 03:00:41;;;;;;;12.38;10.63;;;7.60;99.90;;;;;;4971561;28;20132;-87
2023/01/07 03:03:14;;;;;;;12.93;10.93;;;7.60;99.90;;;;;;4971668;28;20373;-87
2023/01/07 03:05:57;;;;;;;14.13;11.32;;;7.60;99.90;;;;;;4955602;28;20122;-87
2023/01/07 03:08:41;;;;;;;13.18;10.65;;;7.50;99.90;;;;;;4955817;28;20034;-87
2023/01/07 03:11:09;;;;;;;12.10;10.80;;;7.40;99.90;;;;;;4971533;28;20519;-87
2023/01/07 03:13:47;;;;;;;14.10;12.13;;;7.30;99.90;;;;;;4971447;28;20162;-87
2023/01/07 03:16:31;;;;;;;13.38;11.55;;;7.30;99.90;;;;;;4994128;28;20029;-87
2023/01/07 03:19:05;;;;;;;13.80;11.35;;;7.30;99.90;;;;;;5014867;28;20029;-87
2023/01/07 03:21:33;;;;;;;12.68;11.35;;;7.30;99.90;;;;;;5031786;28;20131;-87
2023/01/07 03:24:00;;;;;;;16.40;11.73;;;7.30;99.90;;;;;;5016415;28;20390;-86
2023/01/07 03:26:31;;;;;;;15.02;11.32;;;7.30;99.90;;;;;;5032483;28;20025;-87
2023/01/07 03:29:00;;;;;;;13.73;11.38;;;7.30;99.90;;;;;;5014744;28;20057;-87
2023/01/07 03:31:27;;;;;;;13.55;11.93;;;7.30;99.90;;;;;;5032723;28;20213;-87
2023/01/07 03:34:14;;;;;;;14.05;11.25;;;7.30;99.90;;;;;;5034450;28;20038;-87
2023/01/07 03:36:48;;;;;;;13.52;10.93;;;7.30;99.90;;;;;;5018273;28;20025;-86
2023/01/07 03:39:16;;;;;;;14.90;12.02;;;7.40;99.90;;;;;;5018831;28;20104;-86
2023/01/07 03:44:26;;;;;;;13.40;11.23;;;7.30;99.90;;;;;;5036147;28;20044;-87
2023/01/07 03:46:52;;;;;;;12.73;10.85;;;7.30;99.90;;;;;;5036038;28;20100;-87
2023/01/07 03:49:18;;;;;;;11.70;10.50;;;7.40;99.90;;;;;;5035874;28;20076;-87
2023/01/07 03:51:45;;;;;;;12.75;11.25;;;7.40;99.90;;;;;;5035790;28;20055;-87
2023/01/07 03:54:11;;;;;;;12.40;9.60;;;7.50;99.90;;;;;;5047664;28;20041;-86
2023/01/07 03:56:36;;;;;;;11.52;10.07;;;7.50;99.90;;;;;;5055841;28;20040;-87
2023/01/07 03:59:02;;;;;;;11.32;9.43;;;7.50;99.90;;;;;;5055803;28;20025;-87
2023/01/07 04:01:29;;;;;;;11.88;10.30;;;7.50;99.90;;;;;;5038292;28;20032;-87
2023/01/07 04:03:55;;;;;;;11.85;9.75;;;7.50;99.90;;;;;;5055342;28;20052;-87
2023/01/07 04:06:20;;;;;;;12.30;10.00;;;7.50;99.90;;;;;;5055717;28;20025;-87
2023/01/07 04:08:46;;;;;;;11.70;9.85;;;7.50;99.90;;;;;;5055250;28;20524;-87
2023/01/07 04:11:12;;;;;;;11.95;9.95;;;7.50;99.90;;;;;;5055461;28;20025;-86
2023/01/07 04:13:38;;;;;;;10.75;9.63;;;7.50;99.90;;;;;;5055754;28;20052;-86
2023/01/07 04:16:03;;;;;;;10.63;9.25;;;7.50;99.90;;;;;;5055693;28;20021;-87
2023/01/07 04:18:29;;;;;;;11.07;9.57;;;7.60;99.90;;;;;;5055319;28;20532;-87
2023/01/07 04:20:55;;;;;;;12.07;9.57;;;7.60;99.90;;;;;;5055520;28;20350;-87
2023/01/07 04:23:20;;;;;;;12.90;10.15;;;7.60;99.90;;;;;;5037783;28;20028;-86
2023/01/07 04:25:47;;;;;;;11.82;10.10;;;7.60;99.90;;;;;;5055350;28;20028;-87
2023/01/07 04:28:12;;;;;;;12.35;9.85;;;7.50;99.90;;;;;;5037399;28;20029;-87
2023/01/07 04:30:38;;;;;;;10.70;9.45;;;7.40;99.90;;;;;;5037410;28;20067;-87
2023/01/07 04:33:04;;;;;;;11.93;9.80;;;7.40;99.90;;;;;;5036632;28;20292;-87
2023/01/07 04:35:31;;;;;;;10.82;9.63;;;7.30;99.90;;;;;;5055278;28;20056;-87
2023/01/07 04:37:57;;;;;;;10.43;8.68;;;7.30;99.90;;;;;;5037309;28;20036;-87
2023/01/07 04:40:23;;;;;;;9.80;8.65;;;7.30;99.90;;;;;;5037284;28;20017;-87
2023/01/07 04:42:49;;;;;;;12.25;8.85;;;7.30;99.90;;;;;;5055204;28;20381;-87
2023/01/07 04:45:14;;;;;;;11.95;8.63;;;7.30;99.90;;;;;;5054324;28;20098;-87
2023/01/07 04:47:40;;;;;;;9.43;7.68;;;7.40;99.90;;;;;;5036917;28;20029;-86
2023/01/07 04:50:06;;;;;;;8.85;6.90;;;7.50;99.90;;;;;;5054752;28;20047;-87
2023/01/07 04:52:32;;;;;;;8.98;6.90;;;7.60;99.90;;;;;;5036743;28;20106;-87
2023/01/07 04:54:58;;;;;;;7.85;6.30;;;7.70;99.90;;;;;;5036518;28;20037;-87
2023/01/07 04:57:23;;;;;;;8.07;6.22;;;7.70;99.90;;;;;;5036706;28;20064;-87
2023/01/07 04:59:49;;;;;;;7.70;6.32;;;7.80;99.90;;;;;;5054739;28;20485;-87
2023/01/07 05:02:15;;;;;;;7.82;6.20;;;7.80;99.90;;;;;;5054276;28;20107;-87
2023/01/07 05:04:40;;;;;;;6.75;5.50;;;7.80;99.90;;;;;;5054540;28;20096;-87
2023/01/07 05:07:06;;;;;;;6.80;5.97;;;7.80;99.90;;;;;;5054519;28;20524;-87
2023/01/07 05:09:33;;;;;;;7.72;5.82;;;7.70;99.90;;;;;;5054382;28;20493;-87
2023/01/07 05:11:58;;;;;;;6.75;6.05;;;7.80;99.90;;;;;;5054761;28;20104;-87
2023/01/07 05:14:24;;;;;;;6.75;5.82;;;7.70;99.90;;;;;;5054375;28;20136;-86
2023/01/07 05:16:49;;;;;;;8.05;5.70;;;7.70;99.90;;;;;;5053620;28;20029;-87
2023/01/07 05:19:15;;;;;;;6.63;5.72;;;7.70;99.90;;;;;;5054388;28;20083;-87
2023/01/07 05:21:41;;;;;;;6.97;5.90;;;7.70;99.90;;;;;;5054061;28;20021;-87
2023/01/07 05:24:07;;;;;;;8.25;6.25;;;7.70;99.90;;;;;;5054412;28;20555;-87
2023/01/07 05:26:33;;;;;;;9.15;5.85;;;7.80;99.90;;;;;;5054206;28;20052;-86
2023/01/07 05:28:59;;;;;;;7.90;6.05;;;7.80;99.90;;;;;;5053997;28;20477;-87
2023/01/07 05:31:24;;;;;;;8.93;6.68;;;7.70;99.90;;;;;;5053234;28;20061;-87
2023/01/07 05:33:50;;;;;;;9.82;6.97;;;7.60;99.90;;;;;;5053453;28;20072;-87
2023/01/07 05:36:16;;;;;;;8.10;6.60;;;7.60;99.90;;;;;;5053757;28;20555;-87
2023/01/07 05:38:41;;;;;;;8.20;6.80;;;7.50;99.90;;;;;;5051933;28;20036;-87
2023/01/07 05:41:07;;;;;;;7.57;6.43;;;7.50;99.90;;;;;;5054132;28;20082;-87
2023/01/07 05:43:33;;;;;;;8.45;6.95;;;7.40;99.90;;;;;;5054033;28;20036;-89
2023/01/07 05:45:59;;;;;;;7.75;6.35;;;7.40;99.90;;;;;;5052835;28;20466;-88
2023/01/07 05:48:25;;;;;;;8.35;6.82;;;7.40;99.90;;;;;;5054165;28;20045;-89
2023/01/07 05:50:50;;;;;;;9.20;7.35;;;7.40;99.90;;;;;;5053780;28;20021;-87
2023/01/07 05:53:16;;;;;;;9.20;6.90;;;7.40;99.90;;;;;;5035512;28;20132;-84
2023/01/07 05:55:42;;;;;;;8.25;6.97;;;7.40;99.90;;;;;;5035271;28;20025;-83
2023/01/07 05:58:08;;;;;;;8.20;6.75;;;7.60;99.90;;;;;;5053587;28;20052;-83
2023/01/07 06:00:35;;;;;;;8.30;6.90;;;7.90;99.90;;;;;;5053469;28;20025;-82
2023/01/07 06:03:01;;;;;;;8.60;6.55;;;8.00;99.90;;;;;;5053658;28;20082;-83
2023/01/07 06:05:27;;;;;;;7.78;6.25;;;7.80;99.90;;;;;;5052976;28;20033;-83
2023/01/07 06:07:52;;;;;;;8.30;6.22;;;7.90;99.90;;;;;;5053435;28;20025;-83
2023/01/07 06:10:18;;;;;;;7.85;6.20;;;7.90;99.90;;;;;;5053392;28;20025;-83
2023/01/07 06:12:44;;;;;;;7.97;5.93;;;8.00;99.90;;;;;;5053329;28;20040;-84
2023/01/07 06:15:10;;;;;;;6.93;6.18;;;8.10;99.90;;;;;;5053177;28;20063;-83
2023/01/07 06:17:35;;;;;;;7.43;5.60;;;8.10;99.90;;;;;;5053347;28;20077;-83
2023/01/07 06:20:01;;;;;;;7.00;5.65;;;8.20;99.90;;;;;;5053264;28;20033;-83
2023/01/07 06:22:27;;;;;;;7.60;5.65;;;8.20;99.90;;;;;;5053154;28;20029;-83
2023/01/07 06:24:52;;;;;;;7.55;5.50;;;8.40;99.90;;;;;;5053148;28;20025;-83
2023/01/07 06:27:18;;;;;;;8.68;5.97;;;8.20;99.90;;;;;;5053255;28;20013;-83
2023/01/07 06:29:43;;;;;;;10.10;5.70;;;8.50;99.90;;;;;;5052844;28;20055;-83
2023/01/07 06:32:09;;;;;;;7.13;5.85;;;8.60;99.90;;;;;;5053088;28;20051;-84
2023/01/07 06:34:35;;;;;;;8.00;5.55;;;8.60;99.90;;;;;;5053974;28;20029;-83
2023/01/07 06:37:01;;;;;;;12.00;5.82;;;8.60;99.90;;;;;;5052985;28;20021;-84
2023/01/07 06:39:27;;;;;;;6.57;5.30;;;8.50;99.90;;;;;;5052969;28;20037;-84
2023/01/07 06:41:52;;;;;;;8.70;5.40;;;8.40;99.90;;;;;;5052892;28;20017;-83
2023/01/07 06:44:18;;;;;;;8.23;5.43;;;8.40;99.90;;;;;;5052528;28;20520;-83
2023/01/07 06:46:44;;;;;;;8.63;5.53;;;8.40;99.90;;;;;;5052551;28;20021;-83
2023/01/07 06:49:09;;;;;;;8.90;5.80;;;8.40;99.90;;;;;;5052748;28;20039;-83
2023/01/07 06:51:35;;;;;;;8.85;6.22;;;8.40;99.90;;;;;;5046632;28;20041;-83
2023/01/07 06:54:01;;;;;;;8.50;6.00;;;8.40;99.90;;;;;;5032557;28;20037;-83
2023/01/07 06:56:26;;;;;;;8.40;5.85;;;8.40;99.90;;;;;;5032607;28;20025;-83
2023/01/07 06:58:52;;;;;;;8.18;5.82;;;8.50;99.90;;;;;;5032257;28;20087;-83
2023/01/07 07:01:18;;;;;;;7.35;5.90;;;8.50;99.90;;;;;;5032743;28;20382;-83
2023/01/07 07:03:44;;;;;;;9.77;5.95;;;8.60;99.90;;;;;;5032686;28;20051;-83
2023/01/07 07:06:10;;;;;;;7.75;5.78;;;8.50;99.90;;;;;;5032809;28;20064;-84
2023/01/07 07:08:35;;;;;;;8.38;5.53;;;8.60;99.90;;;;;;5032636;28;20018;-83
2023/01/07 07:11:01;;;;;;;9.82;5.57;;;8.60;99.90;;;;;;5032592;28;20063;-83
2023/01/07 07:13:27;;;;;;;8.98;6.15;;;8.50;99.90;;;;;;5032119;28;20115;-83
2023/01/07 07:15:52;;;;;;;9.40;6.28;;;8.60;99.90;;;;;;5032545;28;20152;-84
2023/01/07 07:18:18;;;;;;;8.43;5.32;;;8.60;99.90;;;;;;5032573;28;20033;-83
2023/01/07 07:20:47;;;;;;;7.30;5.80;;;8.60;99.90;;;;;;5032428;28;20032;-83
2023/01/07 07:23:13;;;;;;;7.45;5.43;;;8.60;99.90;;;;;;5032449;28;20022;-83
2023/01/07 07:25:39;;;;;;;7.78;5.55;;;8.70;99.90;;;;;;5032472;28;20433;-83
2023/01/07 07:28:04;;;;;;;7.15;5.47;;;8.60;99.90;;;;;;5032030;28;20021;-83
2023/01/07 07:30:30;;;;;;;7.82;5.43;;;8.70;99.90;;;;;;5032468;28;20474;-83
2023/01/07 07:33:01;;;;;;;6.47;5.85;;;8.70;99.90;;;;;;5032222;28;20446;-83
2023/01/07 07:35:27;;;;;;;7.45;5.70;;;8.70;99.90;;;;;;5032346;28;20021;-84
2023/01/07 07:37:53;;;;;;;10.27;5.75;;;8.80;99.90;;;;;;5032323;28;20389;-83
2023/01/07 07:40:18;;;;;;;7.50;6.18;;;9.20;99.90;;;;;;5032387;28;20022;-83
2023/01/07 07:42:44;;;;;;;9.48;5.88;;;9.10;99.90;;;;;;5031940;28;20021;-84
2023/01/07 07:45:10;;;;;;;6.78;5.18;;;9.10;99.90;;;;;;5032298;28;20100;-83
2023/01/07 07:47:36;;;;;;;8.27;6.05;;;9.20;99.90;;;;;;5032178;28;20029;-84
2023/01/07 07:50:01;;;;;;;6.90;5.20;;;9.20;99.90;;;;;;5032273;28;20486;-83
2023/01/07 07:52:27;;;;;;;7.35;5.60;;;9.30;99.90;;;;;;5031917;28;20056;-84
2023/01/07 07:54:53;;;;;;;12.07;5.78;;;9.40;99.90;;;;;;5031978;28;20033;-83
2023/01/07 07:57:18;;;;;;;9.02;6.00;;;9.40;99.90;;;;;;5014300;28;20025;-83
2023/01/07 07:59:44;;;;;;;8.30;5.60;;;9.90;99.90;;;;;;5032178;28;20029;-83
2023/01/07 08:02:12;;;;;;;7.97;5.78;;;10.30;99.90;;;;;;5032103;28;20084;-83
2023/01/07 08:04:38;;;;;;;8.27;6.35;;;11.00;99.90;;;;;;5032155;28;20100;-84
2023/01/07 08:07:03;;;;;;;10.48;6.10;;;11.80;99.90;;;;;;5032233;28;20576;-83
2023/01/07 08:09:29;;;;;;;8.65;5.55;;;13.70;99.90;;;;;;5032076;28;20098;-83
2023/01/07 08:11:55;;;;;;;7.40;5.25;;;13.80;99.90;;;;;;5033031;28;20033;-84
2023/01/07 08:14:20;;;;;;;10.98;5.80;;;13.10;99.90;;;;;;5031915;28;20057;-83
2023/01/07 08:16:46;;;;;;;7.68;5.47;;;13.20;99.90;;;;;;5032099;28;20033;-84
2023/01/07 08:19:13;;;;;;;9.13;5.95;;;13.70;99.90;;;;;;5033102;28;20398;-84
2023/01/07 08:21:39;;;;;;;6.65;5.03;;;13.30;99.90;;;;;;5035643;28;20036;-83
2023/01/07 08:24:05;;;;;;;8.82;6.03;;;12.20;99.90;;;;;;5035537;28;20025;-84
2023/01/07 08:26:31;;;;;;;7.20;5.78;;;11.70;99.90;;;;;;5035262;28;20043;-84
2023/01/07 08:28:56;;;;;;;7.68;6.55;;;12.10;99.90;;;;;;5035400;28;20533;-84
2023/01/07 08:31:22;;;;;;;8.18;5.72;;;12.30;99.90;;;;;;5035593;28;20025;-84
2023/01/07 08:33:47;;;;;;;7.43;5.72;;;11.90;99.90;;;;;;5035354;28;20037;-84
2023/01/07 08:36:13;;;;;;;6.78;5.80;;;12.50;99.90;;;;;;5035353;28;20029;-84
2023/01/07 08:38:39;;;;;;;5.97;4.65;;;15.90;99.90;;;;;;5035402;28;20022;-84
2023/01/07 08:41:04;;;;;;;5.80;5.20;;;17.60;99.90;;;;;;5035054;28;20021;-84
2023/01/07 08:43:30;;;;;;;8.00;5.43;;;17.70;99.90;;;;;;5035116;28;20029;-84
2023/01/07 08:45:56;;;;;;;5.82;4.70;;;18.80;99.90;;;;;;5035019;28;20083;-84
2023/01/07 08:48:22;;;;;;;8.30;4.78;;;19.40;99.90;;;;;;5035159;28;20497;-84
2023/01/07 08:50:49;;;;;;;7.13;4.60;;;18.50;99.90;;;;;;5034887;28;20020;-84
2023/01/07 08:53:15;;;;;;;5.05;4.15;;;17.50;99.90;;;;;;5034601;28;20124;-84
2023/01/07 08:55:41;;;;;;;6.75;4.07;;;18.80;99.90;;;;;;5034553;28;20105;-84
2023/01/07 08:58:07;;;;;;;5.80;4.57;;;18.70;99.90;;;;;;5033508;28;20441;-85
2023/01/07 09:00:33;;;;;;;6.53;3.83;;;20.20;99.90;;;;;;5034950;28;20056;-84
2023/01/07 09:02:58;;;;;;;4.38;3.58;;;19.30;99.90;;;;;;5034681;28;20029;-84
2023/01/07 09:05:24;;;;;;;4.93;3.47;;;19.40;99.90;;;;;;5034827;28;20079;-84
2023/01/07 09:07:53;;;;;;;4.38;3.22;;;18.80;99.90;;;;;;5034719;28;20379;-84
2023/01/07 09:10:19;;;;;;;4.07;3.05;;;18.00;99.90;;;;;;5034332;28;20502;-84
2023/01/07 09:12:44;;;;;;;4.30;3.15;;;18.90;99.90;;;;;;5034614;28;20025;-85
2023/01/07 09:15:11;;;;;;;3.75;3.25;;;18.80;99.90;;;;;;5034711;28;20117;-84
2023/01/07 09:17:37;;;;;;;3.95;3.17;;;19.40;99.90;;;;;;5034465;28;20084;-84
2023/01/07 09:20:04;;;;;;;4.00;3.00;;;20.20;99.90;;;;;;5034562;28;20486;-84
2023/01/07 09:22:31;;;;;;;4.35;3.15;;;19.50;99.90;;;;;;5016523;28;20025;-84
2023/01/07 09:24:57;;;;;;;4.90;3.67;;;18.80;99.90;;;;;;5033967;28;20041;-84
2023/01/07 09:27:22;;;;;;;4.68;2.75;;;20.00;99.90;;;;;;5034393;28;20516;-84
2023/01/07 09:29:48;;;;;;;5.10;3.17;;;19.20;99.90;;;;;;5034177;28;20025;-84
2023/01/07 09:32:14;;;;;;;3.97;3.45;;;21.60;99.90;;;;;;5033372;28;20049;-84
2023/01/07 09:34:40;;;;;;;3.95;3.40;;;21.40;99.90;;;;;;5034075;28;20072;-84
2023/01/07 09:37:05;;;;;;;3.50;3.13;;;20.70;99.90;;;;;;5034182;28;20402;-85
2023/01/07 09:39:32;;;;;;;5.13;3.50;;;20.60;99.90;;;;;;5033853;28;20026;-84
2023/01/07 09:42:21;;;;;;;3.45;3.10;;;20.00;99.90;;;;;;5034155;28;20382;-85
2023/01/07 09:44:49;;;;;;;3.30;2.70;;;20.70;99.90;;;;;;5033882;28;20116;-84
2023/01/07 09:47:20;;;;;;;4.45;3.60;;;20.00;99.90;;;;;;5033952;28;20022;-84
2023/01/07 09:49:49;;;;;;;5.03;3.60;;;19.60;99.90;;;;;;5033865;28;20037;-84
2023/01/07 09:52:23;;;;;;;5.72;3.58;;;20.20;99.90;;;;;;5042644;28;20086;-84
2023/01/07 09:54:55;;;;;;;4.43;3.35;;;19.20;99.90;;;;;;5053436;28;20040;-84
2023/01/07 09:57:21;;;;;;;3.50;3.00;;;17.70;99.90;;;;;;5053812;28;20158;-85
2023/01/07 09:59:46;;;;;;;3.70;3.38;;;21.70;99.90;;;;;;5053702;28;20105;-84
2023/01/07 10:02:27;;;;;;;6.60;3.55;;;19.80;99.90;;;;;;5053555;28;20028;-85
2023/01/07 10:05:17;;;;;;;4.95;3.00;;;19.70;99.90;;;;;;5053584;28;20039;-85
2023/01/07 10:08:04;;;;;;;4.07;2.67;;;21.90;99.90;;;;;;5052995;28;20397;-84
2023/01/07 10:10:32;;;;;;;4.80;3.50;;;22.10;99.90;;;;;;5053424;28;20020;-85
2023/01/07 10:13:05;;;;;;;5.82;3.30;;;23.70;99.90;;;;;;5053248;28;20056;-84
2023/01/07 10:16:10;;;;;;;5.35;2.83;;;23.50;99.90;;;;;;5053378;28;20025;-84
2023/01/07 10:18:43;;;;;;;3.17;2.72;;;23.10;99.90;;;;;;4991810;28;20034;-85
2023/01/07 10:21:15;;;;;;;5.90;3.28;;;24.20;99.90;;;;;;4991461;28;20037;-84
2023/01/07 10:23:48;;;;;;;3.38;2.97;;;25.70;99.90;;;;;;4991656;28;20105;-85
2023/01/07 10:26:27;;;;;;;4.13;2.65;;;24.50;99.90;;;;;;4991732;28;20022;-85
2023/01/07 10:29:14;;;;;;;3.38;3.08;;;23.90;99.90;;;;;;4991629;28;20411;-85
2023/01/07 10:31:41;;;;;;;4.18;3.22;;;23.20;99.90;;;;;;4991603;28;20026;-85
2023/01/07 10:34:15;;;;;;;4.05;3.22;;;23.70;99.90;;;;;;4991361;28;20090;-85
2023/01/07 10:37:11;;;;;;;3.95;3.40;;;23.10;99.90;;;;;;4991332;28;20033;-84
2023/01/07 10:39:37;;;;;;;3.72;2.92;;;21.50;99.90;;;;;;4895769;29;20045;-85
2023/01/07 10:42:19;;;;;;;2.70;2.30;;;22.00;99.90;;;;;;4895474;29;20370;-84
2023/01/07 10:45:09;;;;;;;3.33;2.72;;;21.70;99.90;;;;;;4895694;29;20043;-84
2023/01/07 10:47:56;;;;;;;3.45;2.88;;;20.60;99.90;;;;;;4895687;29;20044;-84
2023/01/07 10:50:33;;;;;;;4.72;2.80;;;21.80;99.90;;;;;;4895374;29;20036;-84
2023/01/07 10:53:34;;;;;;;4.47;2.53;;;21.20;99.90;;;;;;4898138;29;20065;-85
2023/01/07 10:56:29;;;;;;;3.20;2.40;;;20.20;99.90;;;;;;4939490;29;20049;-84
2023/01/07 10:58:55;;;;;;;4.80;2.90;;;20.10;99.90;;;;;;4952484;29;20488;-84
2023/01/07 11:01:44;;;;;;;4.22;2.70;;;20.60;99.90;;;;;;4952530;29;20110;-84
2023/01/07 11:04:15;;;;;;;2.45;2.00;;;20.60;99.90;;;;;;4952442;29;20031;-85
2023/01/07 11:06:57;;;;;;;2.88;2.58;;;21.50;99.90;;;;;;4952457;29;20058;-84
2023/01/07 11:09:40;;;;;;;3.47;2.50;;;22.60;99.90;;;;;;4952398;29;20036;-84
2023/01/07 11:12:21;;;;;;;3.53;2.42;;;21.70;99.90;;;;;;4936261;29;20030;-85
2023/01/07 11:14:49;;;;;;;4.07;2.33;;;20.90;99.90;;;;;;4952423;29;20134;-85
2023/01/07 11:17:28;;;;;;;2.60;2.15;;;19.80;99.90;;;;;;5017357;28;20042;-85
2023/01/07 11:19:53;;;;;;;3.42;2.50;;;20.60;99.90;;;;;;5032180;28;20029;-85
2023/01/07 11:22:25;;;;;;;3.78;2.35;;;20.80;99.90;;;;;;5031249;28;20113;-84
2023/01/07 11:24:55;;;;;;;2.83;2.30;;;21.70;99.90;;;;;;5032412;28;20037;-84
2023/01/07 11:27:24;;;;;;;2.95;2.10;;;20.90;99.90;;;;;;5032488;28;20386;-85
2023/01/07 11:29:59;;;;;;;2.20;2.00;;;19.10;99.90;;;;;;5032442;28;20037;-84
2023/01/07 11:32:31;;;;;;;3.38;2.42;;;18.80;99.90;;;;;;5032368;28;20315;-84
2023/01/07 11:35:02;;;;;;;3.63;2.38;;;19.60;99.90;;;;;;5032010;28;20104;-84
2023/01/07 11:37:39;;;;;;;2.95;2.30;;;20.30;99.90;;;;;;5032361;28;20021;-84
2023/01/07 11:40:14;;;;;;;3.00;2.45;;;20.90;99.90;;;;;;5032356;28;20022;-85
2023/01/07 11:42:55;;;;;;;2.97;2.33;;;20.70;99.90;;;;;;5032360;28;20028;-84
2023/01/07 11:45:35;;;;;;;4.10;2.53;;;20.10;99.90;;;;;;5032274;28;20076;-85
2023/01/07 11:48:08;;;;;;;3.42;2.28;;;19.10;99.90;;;;;;5031899;28;20029;-85
2023/01/07 11:50:40;;;;;;;4.15;2.50;;;20.10;99.90;;;;;;5032448;28;20048;-84
2023/01/07 11:53:14;;;;;;;2.40;2.20;;;21.30;99.90;;;;;;5034715;28;20421;-85
2023/01/07 11:56:00;;;;;;;3.72;2.47;;;21.30;99.90;;;;;;5055611;28;20039;-84
2023/01/07 11:58:30;;;;;;;2.78;2.33;;;22.30;99.90;;;;;;5056016;28;20021;-85
2023/01/07 12:01:08;;;;;;;3.85;2.40;;;23.20;99.90;;;;;;5055926;28;20071;-85
2023/01/07 12:03:36;;;;;;;2.75;2.20;;;24.90;99.90;;;;;;5055426;28;20070;-85
2023/01/07 12:06:10;;;;;;;2.22;1.88;;;23.00;99.90;;;;;;5055897;28;20032;-84
2023/01/07 12:08:36;;;;;;;4.32;2.08;;;22.40;99.90;;;;;;5055802;28;20508;-84
2023/01/07 12:11:07;;;;;;;3.72;2.65;;;20.60;99.90;;;;;;5055709;28;20421;-85
2023/01/07 12:13:34;;;;;;;3.40;3.10;;;23.80;99.90;;;;;;5055590;28;20098;-85
2023/01/07 12:16:06;;;;;;;3.17;2.00;;;24.80;99.90;;;;;;5055600;28;20021;-85
2023/01/07 12:18:55;;;;;;;5.18;2.30;;;22.80;99.90;;;;;;5055425;28;20036;-84
2023/01/07 12:21:26;;;;;;;2.05;1.85;;;22.80;99.90;;;;;;5055544;28;20013;-85
2023/01/07 12:24:13;;;;;;;3.25;1.92;;;21.80;99.90;;;;;;5055493;28;20117;-84
2023/01/07 12:27:10;;;;;;;3.60;2.30;;;22.50;99.90;;;;;;5055581;28;20475;-84
2023/01/07 12:30:10;;;;;;;1.95;1.80;;;22.60;99.90;;;;;;5054794;28;20068;-85
2023/01/07 12:32:42;;;;;;;2.80;2.08;;;20.30;99.90;;;;;;5055091;28;20025;-85
2023/01/07 12:35:17;;;;;;;3.65;2.35;;;20.70;99.90;;;;;;5055288;28;20060;-85
2023/01/07 12:37:44;;;;;;;4.63;2.10;;;21.40;99.90;;;;;;5055373;28;20029;-84
2023/01/07 12:40:15;;;;;;;2.97;2.53;;;22.20;99.90;;;;;;5055206;28;20021;-84
2023/01/07 12:42:55;;;;;;;2.90;2.60;;;24.10;99.90;;;;;;5055264;28;20044;-84
2023/01/07 12:45:53;;;;;;;2.67;2.30;;;26.10;99.90;;;;;;5055013;28;20029;-85
2023/01/07 12:48:35;;;;;;;2.70;2.22;;;27.80;99.90;;;;;;5054929;28;20029;-85
2023/01/07 12:51:08;;;;;;;2.22;1.83;;;23.50;99.90;;;;;;5055123;28;20021;-85
2023/01/07 12:53:49;;;;;;;2.67;2.45;;;22.90;99.90;;;;;;5034655;28;20033;-84
2023/01/07 12:56:20;;;;;;;4.97;2.10;;;22.90;99.90;;;;;;5035072;28;20053;-85
2023/01/07 12:58:54;;;;;;;4.82;2.53;;;23.30;99.90;;;;;;5034860;28;20029;-85
2023/01/07 13:01:40;;;;;;;3.72;2.40;;;23.20;99.90;;;;;;5034441;28;20397;-85
2023/01/07 13:04:15;;;;;;;3.45;2.40;;;23.40;99.90;;;;;;5034783;28;20176;-85
2023/01/07 13:06:56;;;;;;;2.90;1.92;;;24.60;99.90;;;;;;5034672;28;20032;-85